createdAt,value
2018-03-29T00:00:10.763Z,0
2018-03-29T00:01:10.734Z,0
2018-03-29T00:02:10.733Z,0
2018-03-29T00:03:10.752Z,0
2018-03-29T00:04:10.507Z,0
2018-03-29T00:05:10.589Z,0
2018-03-29T00:06:10.043Z,0
2018-03-29T00:07:10.563Z,0
2018-03-29T00:08:10.584Z,0
2018-03-29T00:09:10.379Z,0
2018-03-29T00:10:11.119Z,0
2018-03-29T00:11:10.892Z,0
2018-03-29T00:12:10.904Z,0
2018-03-29T00:13:10.661Z,0
2018-03-29T00:14:10.432Z,0
2018-03-29T00:15:10.440Z,0
2018-03-29T00:16:11.234Z,0
2018-03-29T00:17:10.985Z,0
2018-03-29T00:18:10.745Z,0
2018-03-29T00:19:10.759Z,0
2018-03-29T00:20:11.242Z,0
2018-03-29T00:21:10.791Z,0
2018-03-29T00:22:11.086Z,0
2018-03-29T00:23:11.329Z,0
2018-03-29T00:24:10.880Z,0
2018-03-29T00:25:10.599Z,0
2018-03-29T00:26:11.134Z,0
2018-03-29T00:27:11.152Z,0
2018-03-29T00:28:11.155Z,0
2018-03-29T00:29:11.422Z,0
2018-03-29T00:30:10.923Z,0
2018-03-29T00:31:10.680Z,0
2018-03-29T00:32:10.955Z,0
2018-03-29T00:33:10.972Z,0
2018-03-29T00:34:11.016Z,0
2018-03-29T00:35:10.801Z,0
2018-03-29T00:36:10.773Z,0
2018-03-29T00:37:11.288Z,0
2018-03-29T00:38:11.305Z,0
2018-03-29T00:39:10.820Z,0
2018-03-29T00:40:10.934Z,0
2018-03-29T00:41:10.858Z,0
2018-03-29T00:42:11.131Z,0
2018-03-29T00:43:11.665Z,0
2018-03-29T00:44:11.681Z,0
2018-03-29T00:45:10.922Z,0
2018-03-29T00:46:11.205Z,0
2018-03-29T00:47:10.698Z,0
2018-03-29T00:48:10.971Z,0
2018-03-29T00:49:10.987Z,0
2018-03-29T00:50:11.001Z,0
2018-03-29T00:51:11.529Z,0
2018-03-29T00:52:11.298Z,0
2018-03-29T00:53:11.565Z,0
2018-03-29T00:54:11.311Z,0
2018-03-29T00:55:11.609Z,0
2018-03-29T00:56:11.152Z,0
2018-03-29T00:57:11.619Z,0
2018-03-29T00:58:11.894Z,0
2018-03-29T00:59:11.911Z,0
2018-03-29T01:00:11.680Z,0
2018-03-29T01:01:10.920Z,0
2018-03-29T01:02:11.188Z,0
2018-03-29T01:03:11.465Z,0
2018-03-29T01:04:11.230Z,0
2018-03-29T01:05:11.748Z,0
2018-03-29T01:06:11.562Z,0
2018-03-29T01:07:11.526Z,0
2018-03-29T01:08:11.554Z,0
2018-03-29T01:09:12.066Z,0
2018-03-29T01:10:11.567Z,0
2018-03-29T01:11:11.592Z,0
2018-03-29T01:12:11.853Z,0
2018-03-29T01:13:12.126Z,0
2018-03-29T01:14:11.886Z,0
2018-03-29T01:15:11.904Z,0
2018-03-29T01:16:11.414Z,0
2018-03-29T01:17:11.943Z,0
2018-03-29T01:18:11.993Z,0
2018-03-29T01:19:11.983Z,0
2018-03-29T01:20:11.993Z,0
2018-03-29T01:21:11.807Z,0
2018-03-29T01:22:12.011Z,0
2018-03-29T01:23:12.032Z,0
2018-03-29T01:24:11.798Z,0
2018-03-29T01:25:11.809Z,0
2018-03-29T01:26:12.075Z,0
2018-03-29T01:27:11.584Z,0
2018-03-29T01:28:11.853Z,0
2018-03-29T01:29:11.872Z,0
2018-03-29T01:30:12.148Z,0
2018-03-29T01:31:12.147Z,0
2018-03-29T01:32:12.169Z,0
2018-03-29T01:33:12.199Z,0
2018-03-29T01:34:12.199Z,0
2018-03-29T01:35:12.479Z,0
2018-03-29T01:36:12.285Z,0
2018-03-29T01:37:11.998Z,0
2018-03-29T01:38:12.022Z,0
2018-03-29T01:39:11.763Z,0
2018-03-29T01:40:12.291Z,0
2018-03-29T01:41:12.051Z,0
2018-03-29T01:42:11.807Z,0
2018-03-29T01:43:12.597Z,0
2018-03-29T01:44:12.347Z,0
2018-03-29T01:45:12.129Z,0
2018-03-29T01:46:12.645Z,0
2018-03-29T01:47:12.398Z,0
2018-03-29T01:48:12.163Z,0
2018-03-29T01:49:12.444Z,0
2018-03-29T01:50:12.191Z,0
2018-03-29T01:51:12.515Z,0
2018-03-29T01:52:11.965Z,0
2018-03-29T01:53:12.254Z,0
2018-03-29T01:54:12.252Z,0
2018-03-29T01:55:12.776Z,0
2018-03-29T01:56:12.282Z,0
2018-03-29T01:57:12.800Z,0
2018-03-29T01:58:12.566Z,0
2018-03-29T01:59:12.077Z,0
2018-03-29T02:00:12.586Z,0
2018-03-29T02:01:12.369Z,0
2018-03-29T02:02:12.372Z,0
2018-03-29T02:03:12.633Z,0
2018-03-29T02:04:12.644Z,0
2018-03-29T02:05:12.663Z,0
2018-03-29T02:06:12.981Z,0
2018-03-29T02:07:12.685Z,0
2018-03-29T02:08:12.710Z,0
2018-03-29T02:09:12.735Z,0
2018-03-29T02:10:11.984Z,0
2018-03-29T02:11:12.518Z,0
2018-03-29T02:12:12.529Z,0
2018-03-29T02:13:12.790Z,0
2018-03-29T02:14:12.548Z,0
2018-03-29T02:15:12.834Z,0
2018-03-29T02:16:12.849Z,0
2018-03-29T02:17:12.604Z,0
2018-03-29T02:18:12.873Z,0
2018-03-29T02:19:13.136Z,0
2018-03-29T02:20:12.918Z,0
2018-03-29T02:21:12.699Z,0
2018-03-29T02:22:12.425Z,0
2018-03-29T02:23:13.203Z,0
2018-03-29T02:24:12.710Z,0
2018-03-29T02:25:12.713Z,0
2018-03-29T02:26:12.526Z,0
2018-03-29T02:27:13.104Z,0
2018-03-29T02:28:12.501Z,0
2018-03-29T02:29:13.293Z,0
2018-03-29T02:30:13.057Z,0
2018-03-29T02:31:12.802Z,0
2018-03-29T02:32:13.353Z,0
2018-03-29T02:33:13.123Z,0
2018-03-29T02:34:12.600Z,0
2018-03-29T02:35:13.392Z,0
2018-03-29T02:36:13.409Z,0
2018-03-29T02:37:13.426Z,0
2018-03-29T02:38:13.501Z,0
2018-03-29T02:39:12.944Z,0
2018-03-29T02:40:13.226Z,0
2018-03-29T02:41:13.524Z,0
2018-03-29T02:42:13.495Z,0
2018-03-29T02:43:13.236Z,0
2018-03-29T02:44:13.297Z,0
2018-03-29T02:45:13.520Z,0
2018-03-29T02:46:13.127Z,0
2018-03-29T02:47:13.288Z,0
2018-03-29T02:48:13.593Z,0
2018-03-29T02:49:13.344Z,0
2018-03-29T02:50:13.590Z,0
2018-03-29T02:51:13.127Z,0
2018-03-29T02:52:13.357Z,0
2018-03-29T02:53:13.128Z,0
2018-03-29T02:54:13.654Z,0
2018-03-29T02:55:13.686Z,0
2018-03-29T02:56:13.479Z,0
2018-03-29T02:57:13.203Z,0
2018-03-29T02:58:13.713Z,0
2018-03-29T02:59:13.218Z,0
2018-03-29T03:00:13.503Z,0
2018-03-29T03:01:13.247Z,0
2018-03-29T03:02:13.521Z,0
2018-03-29T03:03:13.282Z,0
2018-03-29T03:04:13.548Z,0
2018-03-29T03:05:13.573Z,0
2018-03-29T03:06:13.316Z,0
2018-03-29T03:07:13.377Z,0
2018-03-29T03:08:13.107Z,0
2018-03-29T03:09:13.635Z,0
2018-03-29T03:10:13.888Z,0
2018-03-29T03:11:13.702Z,0
2018-03-29T03:12:13.663Z,0
2018-03-29T03:13:13.427Z,0
2018-03-29T03:14:13.945Z,0
2018-03-29T03:15:13.762Z,0
2018-03-29T03:16:13.720Z,0
2018-03-29T03:17:13.480Z,0
2018-03-29T03:18:13.492Z,0
2018-03-29T03:19:13.518Z,0
2018-03-29T03:20:13.528Z,0
2018-03-29T03:21:13.827Z,0
2018-03-29T03:22:13.855Z,0
2018-03-29T03:23:13.822Z,0
2018-03-29T03:24:13.684Z,0
2018-03-29T03:25:13.844Z,0
2018-03-29T03:26:13.912Z,0
2018-03-29T03:27:13.889Z,0
2018-03-29T03:28:13.637Z,0
2018-03-29T03:29:13.920Z,0
2018-03-29T03:30:13.951Z,0
2018-03-29T03:31:13.749Z,0
2018-03-29T03:32:13.968Z,0
2018-03-29T03:33:13.724Z,0
2018-03-29T03:34:13.966Z,0
2018-03-29T03:35:14.221Z,0
2018-03-29T03:36:14.241Z,0
2018-03-29T03:37:14.080Z,0
2018-03-29T03:38:14.288Z,0
2018-03-29T03:39:14.034Z,0
2018-03-29T03:40:14.298Z,0
2018-03-29T03:41:13.873Z,0
2018-03-29T03:42:14.114Z,0
2018-03-29T03:43:14.115Z,0
2018-03-29T03:44:14.120Z,0
2018-03-29T03:45:14.378Z,0
2018-03-29T03:46:14.452Z,0
2018-03-29T03:47:14.449Z,0
2018-03-29T03:48:14.202Z,0
2018-03-29T03:49:13.705Z,0
2018-03-29T03:50:14.231Z,0
2018-03-29T03:51:14.024Z,0
2018-03-29T03:52:14.003Z,0
2018-03-29T03:53:14.023Z,0
2018-03-29T03:54:14.370Z,0
2018-03-29T03:55:14.315Z,0
2018-03-29T03:56:14.632Z,0
2018-03-29T03:57:14.089Z,0
2018-03-29T03:58:14.386Z,0
2018-03-29T03:59:14.346Z,0
2018-03-29T04:00:13.883Z,0
2018-03-29T04:01:14.403Z,0
2018-03-29T04:02:14.440Z,0
2018-03-29T04:03:14.429Z,0
2018-03-29T04:04:14.706Z,0
2018-03-29T04:05:13.968Z,0
2018-03-29T04:06:14.500Z,0
2018-03-29T04:07:14.758Z,0
2018-03-29T04:08:14.519Z,0
2018-03-29T04:09:14.783Z,0
2018-03-29T04:10:14.551Z,0
2018-03-29T04:11:14.357Z,0
2018-03-29T04:12:14.318Z,0
2018-03-29T04:13:14.084Z,0
2018-03-29T04:14:14.385Z,0
2018-03-29T04:15:14.365Z,0
2018-03-29T04:16:13.872Z,0
2018-03-29T04:17:14.908Z,0
2018-03-29T04:18:14.668Z,0
2018-03-29T04:19:14.933Z,0
2018-03-29T04:20:14.950Z,0
2018-03-29T04:21:14.461Z,0
2018-03-29T04:22:14.736Z,0
2018-03-29T04:23:14.750Z,0
2018-03-29T04:24:14.501Z,0
2018-03-29T04:25:14.522Z,0
2018-03-29T04:26:14.834Z,0
2018-03-29T04:27:14.543Z,0
2018-03-29T04:28:14.824Z,0
2018-03-29T04:29:14.826Z,0
2018-03-29T04:30:14.595Z,0
2018-03-29T04:31:14.863Z,0
2018-03-29T04:32:15.159Z,0
2018-03-29T04:33:15.149Z,0
2018-03-29T04:34:14.676Z,0
2018-03-29T04:35:14.984Z,0
2018-03-29T04:36:14.993Z,0
2018-03-29T04:37:14.963Z,0
2018-03-29T04:38:15.216Z,0
2018-03-29T04:39:14.979Z,0
2018-03-29T04:40:14.490Z,0
2018-03-29T04:41:15.321Z,0
2018-03-29T04:42:15.024Z,0
2018-03-29T04:43:15.041Z,0
2018-03-29T04:44:14.817Z,0
2018-03-29T04:45:14.820Z,0
2018-03-29T04:46:14.835Z,0
2018-03-29T04:47:15.107Z,0
2018-03-29T04:48:15.124Z,0
2018-03-29T04:49:15.592Z,0
2018-03-29T04:50:15.397Z,0
2018-03-29T04:51:15.422Z,0
2018-03-29T04:52:14.927Z,0
2018-03-29T04:53:15.194Z,0
2018-03-29T04:54:14.445Z,0
2018-03-29T04:55:15.224Z,0
2018-03-29T04:56:15.293Z,0
2018-03-29T04:57:15.516Z,5
2018-03-29T04:58:15.267Z,5
2018-03-29T04:59:15.289Z,5
2018-03-29T05:00:15.051Z,5
2018-03-29T05:01:15.587Z,5
2018-03-29T05:02:15.579Z,5
2018-03-29T05:03:15.090Z,5
2018-03-29T05:04:15.343Z,10
2018-03-29T05:05:15.611Z,10
2018-03-29T05:06:15.374Z,10
2018-03-29T05:07:15.396Z,10
2018-03-29T05:08:15.396Z,10
2018-03-29T05:09:15.443Z,10
2018-03-29T05:10:15.430Z,10
2018-03-29T05:11:15.248Z,15
2018-03-29T05:12:15.459Z,15
2018-03-29T05:13:15.929Z,15
2018-03-29T05:14:15.244Z,15
2018-03-29T05:15:15.522Z,15
2018-03-29T05:16:15.290Z,15
2018-03-29T05:17:15.549Z,15
2018-03-29T05:18:15.566Z,20
2018-03-29T05:19:15.335Z,20
2018-03-29T05:20:15.854Z,20
2018-03-29T05:21:15.364Z,20
2018-03-29T05:22:15.376Z,20
2018-03-29T05:23:15.641Z,20
2018-03-29T05:24:15.917Z,20
2018-03-29T05:25:15.437Z,20
2018-03-29T05:26:15.850Z,20
2018-03-29T05:27:15.706Z,20
2018-03-29T05:28:15.724Z,15
2018-03-29T05:29:16.000Z,15
2018-03-29T05:30:15.998Z,15
2018-03-29T05:31:15.514Z,15
2018-03-29T05:32:15.546Z,15
2018-03-29T05:33:16.065Z,15
2018-03-29T05:34:15.546Z,15
2018-03-29T05:35:15.552Z,20
2018-03-29T05:36:16.069Z,20
2018-03-29T05:37:15.608Z,20
2018-03-29T05:38:15.882Z,20
2018-03-29T05:39:16.138Z,20
2018-03-29T05:40:15.734Z,25
2018-03-29T05:41:15.728Z,25
2018-03-29T05:42:16.201Z,25
2018-03-29T05:43:16.211Z,30
2018-03-29T05:44:15.963Z,30
2018-03-29T05:45:16.241Z,35
2018-03-29T05:46:15.996Z,40
2018-03-29T05:47:15.752Z,40
2018-03-29T05:48:16.033Z,45
2018-03-29T05:49:16.053Z,50
2018-03-29T05:50:16.060Z,50
2018-03-29T05:51:16.332Z,50
2018-03-29T05:52:15.828Z,50
2018-03-29T05:53:16.352Z,55
2018-03-29T05:54:16.123Z,60
2018-03-29T05:55:16.209Z,60
2018-03-29T05:56:16.562Z,65
2018-03-29T05:57:15.652Z,65
2018-03-29T05:58:16.445Z,65
2018-03-29T05:59:16.465Z,70
2018-03-29T06:00:16.217Z,70
2018-03-29T06:01:15.975Z,75
2018-03-29T06:02:16.533Z,75
2018-03-29T06:03:16.518Z,80
2018-03-29T06:04:16.273Z,85
2018-03-29T06:05:16.291Z,90
2018-03-29T06:06:16.554Z,90
2018-03-29T06:07:16.380Z,90
2018-03-29T06:08:16.082Z,90
2018-03-29T06:09:16.612Z,85
2018-03-29T06:10:15.870Z,85
2018-03-29T06:11:16.183Z,85
2018-03-29T06:12:16.689Z,80
2018-03-29T06:13:16.411Z,80
2018-03-29T06:14:15.918Z,80
2018-03-29T06:15:16.467Z,80
2018-03-29T06:16:16.205Z,85
2018-03-29T06:17:16.728Z,85
2018-03-29T06:18:16.485Z,85
2018-03-29T06:19:16.252Z,85
2018-03-29T06:20:16.012Z,80
2018-03-29T06:21:16.541Z,75
2018-03-29T06:22:16.303Z,70
2018-03-29T06:23:17.148Z,75
2018-03-29T06:24:16.840Z,80
2018-03-29T06:25:16.354Z,85
2018-03-29T06:26:16.954Z,85
2018-03-29T06:27:16.370Z,90
2018-03-29T06:28:16.391Z,85
2018-03-29T06:29:16.152Z,85
2018-03-29T06:30:17.127Z,95
2018-03-29T06:31:16.744Z,105
2018-03-29T06:32:16.734Z,110
2018-03-29T06:33:16.455Z,100
2018-03-29T06:34:16.206Z,95
2018-03-29T06:35:16.985Z,100
2018-03-29T06:36:16.497Z,110
2018-03-29T06:37:16.513Z,115
2018-03-29T06:38:16.789Z,105
2018-03-29T06:39:16.539Z,110
2018-03-29T06:40:16.831Z,125
2018-03-29T06:41:17.105Z,125
2018-03-29T06:42:16.866Z,125
2018-03-29T06:43:16.369Z,120
2018-03-29T06:44:17.149Z,120
2018-03-29T06:45:17.179Z,120
2018-03-29T06:46:17.231Z,125
2018-03-29T06:47:16.911Z,135
2018-03-29T06:48:16.452Z,130
2018-03-29T06:49:16.691Z,125
2018-03-29T06:50:16.956Z,125
2018-03-29T06:51:16.720Z,130
2018-03-29T06:52:16.743Z,135
2018-03-29T06:53:16.749Z,125
2018-03-29T06:54:16.517Z,130
2018-03-29T06:55:17.296Z,125
2018-03-29T06:56:17.069Z,130
2018-03-29T06:57:17.067Z,140
2018-03-29T06:58:17.087Z,145
2018-03-29T06:59:17.138Z,140
2018-03-29T07:00:16.658Z,145
2018-03-29T07:01:17.078Z,145
2018-03-29T07:02:16.652Z,145
2018-03-29T07:03:17.181Z,145
2018-03-29T07:04:17.201Z,140
2018-03-29T07:05:17.468Z,135
2018-03-29T07:06:17.508Z,125
2018-03-29T07:07:17.251Z,130
2018-03-29T07:08:17.540Z,130
2018-03-29T07:09:17.304Z,135
2018-03-29T07:10:17.469Z,140
2018-03-29T07:11:17.373Z,145
2018-03-29T07:12:17.342Z,150
2018-03-29T07:13:17.623Z,150
2018-03-29T07:14:17.372Z,150
2018-03-29T07:15:17.391Z,150
2018-03-29T07:16:17.414Z,150
2018-03-29T07:17:17.165Z,150
2018-03-29T07:18:17.442Z,140
2018-03-29T07:19:17.211Z,140
2018-03-29T07:20:17.518Z,135
2018-03-29T07:21:17.734Z,135
2018-03-29T07:22:17.520Z,130
2018-03-29T07:23:17.271Z,90
2018-03-29T07:24:17.025Z,120
2018-03-29T07:25:17.864Z,120
2018-03-29T07:26:17.831Z,125
2018-03-29T07:27:17.338Z,130
2018-03-29T07:28:17.359Z,140
2018-03-29T07:29:17.364Z,140
2018-03-29T07:30:17.634Z,140
2018-03-29T07:31:17.648Z,140
2018-03-29T07:32:17.676Z,140
2018-03-29T07:33:17.156Z,145
2018-03-29T07:34:17.680Z,140
2018-03-29T07:35:18.027Z,140
2018-03-29T07:36:17.724Z,145
2018-03-29T07:37:17.489Z,150
2018-03-29T07:38:17.755Z,145
2018-03-29T07:39:17.526Z,145
2018-03-29T07:40:17.839Z,145
2018-03-29T07:41:18.078Z,145
2018-03-29T07:42:17.573Z,140
2018-03-29T07:43:17.837Z,125
2018-03-29T07:44:17.718Z,130
2018-03-29T07:45:17.876Z,125
2018-03-29T07:46:17.892Z,130
2018-03-29T07:47:18.045Z,135
2018-03-29T07:48:17.920Z,140
2018-03-29T07:49:18.198Z,150
2018-03-29T07:50:17.714Z,160
2018-03-29T07:51:17.723Z,160
2018-03-29T07:52:17.730Z,155
2018-03-29T07:53:18.392Z,165
2018-03-29T07:54:17.765Z,185
2018-03-29T07:55:18.353Z,185
2018-03-29T07:56:17.807Z,175
2018-03-29T07:57:17.557Z,175
2018-03-29T07:58:18.086Z,180
2018-03-29T07:59:17.599Z,185
2018-03-29T08:00:18.383Z,185
2018-03-29T08:01:18.389Z,185
2018-03-29T08:02:17.917Z,195
2018-03-29T08:03:18.159Z,205
2018-03-29T08:04:18.447Z,220
2018-03-29T08:05:18.462Z,225
2018-03-29T08:06:18.049Z,220
2018-03-29T08:07:18.229Z,210
2018-03-29T08:08:18.262Z,210
2018-03-29T08:09:18.536Z,205
2018-03-29T08:10:18.394Z,195
2018-03-29T08:11:18.302Z,195
2018-03-29T08:12:18.320Z,210
2018-03-29T08:13:18.084Z,215
2018-03-29T08:14:18.357Z,210
2018-03-29T08:15:18.114Z,200
2018-03-29T08:16:18.108Z,200
2018-03-29T08:17:18.623Z,200
2018-03-29T08:18:18.648Z,200
2018-03-29T08:19:18.421Z,195
2018-03-29T08:20:18.191Z,185
2018-03-29T08:21:18.693Z,185
2018-03-29T08:22:18.484Z,215
2018-03-29T08:23:18.723Z,225
2018-03-29T08:24:18.232Z,225
2018-03-29T08:25:18.510Z,220
2018-03-29T08:26:18.267Z,215
2018-03-29T08:27:18.327Z,205
2018-03-29T08:28:18.550Z,205
2018-03-29T08:29:18.827Z,200
2018-03-29T08:30:18.612Z,195
2018-03-29T08:31:18.633Z,205
2018-03-29T08:32:17.885Z,230
2018-03-29T08:33:19.053Z,265
2018-03-29T08:34:18.432Z,285
2018-03-29T08:35:18.238Z,290
2018-03-29T08:36:18.462Z,295
2018-03-29T08:37:18.733Z,295
2018-03-29T08:38:18.752Z,290
2018-03-29T08:39:18.761Z,290
2018-03-29T08:40:18.535Z,280
2018-03-29T08:41:18.811Z,280
2018-03-29T08:42:19.088Z,275
2018-03-29T08:43:18.596Z,275
2018-03-29T08:44:19.119Z,265
2018-03-29T08:45:18.618Z,255
2018-03-29T08:46:18.638Z,255
2018-03-29T08:47:18.905Z,260
2018-03-29T08:48:18.676Z,260
2018-03-29T08:49:18.953Z,255
2018-03-29T08:50:19.010Z,260
2018-03-29T08:51:19.252Z,270
2018-03-29T08:52:19.248Z,285
2018-03-29T08:53:19.015Z,295
2018-03-29T08:54:18.778Z,295
2018-03-29T08:55:19.058Z,300
2018-03-29T08:56:18.812Z,300
2018-03-29T08:57:18.832Z,300
2018-03-29T08:58:19.101Z,300
2018-03-29T08:59:18.875Z,295
2018-03-29T09:00:19.142Z,305
2018-03-29T09:01:18.902Z,315
2018-03-29T09:02:18.676Z,325
2018-03-29T09:03:19.197Z,340
2018-03-29T09:04:19.233Z,355
2018-03-29T09:05:18.983Z,375
2018-03-29T09:06:18.989Z,400
2018-03-29T09:07:18.757Z,415
2018-03-29T09:08:19.306Z,410
2018-03-29T09:09:19.351Z,405
2018-03-29T09:10:18.809Z,395
2018-03-29T09:11:19.336Z,395
2018-03-29T09:12:19.114Z,380
2018-03-29T09:13:18.863Z,370
2018-03-29T09:14:19.140Z,365
2018-03-29T09:15:19.660Z,350
2018-03-29T09:16:19.434Z,330
2018-03-29T09:17:19.198Z,300
2018-03-29T09:18:19.208Z,290
2018-03-29T09:19:19.530Z,300
2018-03-29T09:20:19.501Z,305
2018-03-29T09:21:19.515Z,300
2018-03-29T09:22:19.533Z,310
2018-03-29T09:23:19.557Z,315
2018-03-29T09:24:19.576Z,305
2018-03-29T09:25:19.339Z,300
2018-03-29T09:26:19.357Z,315
2018-03-29T09:27:19.665Z,335
2018-03-29T09:28:19.907Z,350
2018-03-29T09:29:19.908Z,355
2018-03-29T09:30:19.699Z,350
2018-03-29T09:31:19.455Z,340
2018-03-29T09:32:19.762Z,305
2018-03-29T09:33:19.491Z,275
2018-03-29T09:34:19.823Z,250
2018-03-29T09:35:19.777Z,240
2018-03-29T09:36:19.296Z,240
2018-03-29T09:37:19.311Z,250
2018-03-29T09:38:19.836Z,255
2018-03-29T09:39:20.106Z,260
2018-03-29T09:40:19.375Z,260
2018-03-29T09:41:20.157Z,250
2018-03-29T09:42:19.671Z,245
2018-03-29T09:43:19.680Z,240
2018-03-29T09:44:20.207Z,245
2018-03-29T09:45:20.225Z,255
2018-03-29T09:46:19.737Z,275
2018-03-29T09:47:19.754Z,280
2018-03-29T09:48:19.774Z,275
2018-03-29T09:49:19.797Z,270
2018-03-29T09:50:20.124Z,275
2018-03-29T09:51:20.093Z,285
2018-03-29T09:52:19.865Z,300
2018-03-29T09:53:19.874Z,315
2018-03-29T09:54:20.151Z,335
2018-03-29T09:55:20.166Z,360
2018-03-29T09:56:20.182Z,390
2018-03-29T09:57:20.456Z,440
2018-03-29T09:58:20.216Z,475
2018-03-29T09:59:20.498Z,495
2018-03-29T10:00:19.750Z,500
2018-03-29T10:01:20.021Z,500
2018-03-29T10:02:20.044Z,515
2018-03-29T10:03:20.059Z,525
2018-03-29T10:04:20.336Z,540
2018-03-29T10:05:20.659Z,550
2018-03-29T10:06:20.121Z,550
2018-03-29T10:07:20.398Z,560
2018-03-29T10:08:20.433Z,585
2018-03-29T10:09:20.438Z,600
2018-03-29T10:10:20.464Z,600
2018-03-29T10:11:20.233Z,595
2018-03-29T10:12:20.644Z,585
2018-03-29T10:13:20.003Z,575
2018-03-29T10:14:20.543Z,580
2018-03-29T10:15:20.556Z,560
2018-03-29T10:16:20.584Z,545
2018-03-29T10:17:20.852Z,525
2018-03-29T10:18:20.616Z,510
2018-03-29T10:19:20.894Z,500
2018-03-29T10:20:20.459Z,500
2018-03-29T10:21:20.683Z,505
2018-03-29T10:22:20.954Z,510
2018-03-29T10:23:20.473Z,525
2018-03-29T10:24:20.545Z,535
2018-03-29T10:25:20.757Z,555
2018-03-29T10:26:20.791Z,570
2018-03-29T10:27:21.058Z,610
2018-03-29T10:28:20.849Z,605
2018-03-29T10:29:20.849Z,615
2018-03-29T10:30:20.979Z,605
2018-03-29T10:31:20.898Z,595
2018-03-29T10:32:20.934Z,600
2018-03-29T10:33:21.262Z,595
2018-03-29T10:34:20.965Z,600
2018-03-29T10:35:21.032Z,570
2018-03-29T10:36:21.263Z,555
2018-03-29T10:37:21.047Z,540
2018-03-29T10:38:21.310Z,525
2018-03-29T10:39:21.324Z,515
2018-03-29T10:40:21.387Z,515
2018-03-29T10:41:21.429Z,500
2018-03-29T10:42:20.879Z,500
2018-03-29T10:43:21.426Z,490
2018-03-29T10:44:21.180Z,485
2018-03-29T10:45:21.193Z,485
2018-03-29T10:46:21.002Z,490
2018-03-29T10:47:21.239Z,505
2018-03-29T10:48:20.998Z,530
2018-03-29T10:49:21.279Z,515
2018-03-29T10:50:21.299Z,495
2018-03-29T10:51:21.348Z,495
2018-03-29T10:52:21.638Z,505
2018-03-29T10:53:20.852Z,535
2018-03-29T10:54:21.395Z,550
2018-03-29T10:55:21.402Z,565
2018-03-29T10:56:21.886Z,610
2018-03-29T10:57:21.757Z,655
2018-03-29T10:58:21.726Z,640
2018-03-29T10:59:21.497Z,755
2018-03-29T11:00:21.257Z,705
2018-03-29T11:01:21.787Z,775
2018-03-29T11:02:21.297Z,780
2018-03-29T11:03:21.899Z,740
2018-03-29T11:04:21.648Z,1185
2018-03-29T11:05:21.370Z,805
2018-03-29T11:06:21.389Z,695
2018-03-29T11:07:21.430Z,975
2018-03-29T11:08:21.939Z,1250
2018-03-29T11:09:21.727Z,1235
2018-03-29T11:10:22.158Z,1115
2018-03-29T11:11:21.810Z,1095
2018-03-29T11:12:21.787Z,890
2018-03-29T11:13:21.814Z,905
2018-03-29T11:14:21.337Z,830
2018-03-29T11:15:21.601Z,1230
2018-03-29T11:16:21.887Z,985
2018-03-29T11:17:22.166Z,905
2018-03-29T11:18:22.192Z,1135
2018-03-29T11:19:21.703Z,1075
2018-03-29T11:20:21.720Z,1005
2018-03-29T11:21:21.488Z,1140
2018-03-29T11:22:22.035Z,995
2018-03-29T11:23:22.303Z,890
2018-03-29T11:24:22.134Z,925
2018-03-29T11:25:22.492Z,1055
2018-03-29T11:26:22.466Z,1095
2018-03-29T11:27:22.426Z,955
2018-03-29T11:28:21.946Z,705
2018-03-29T11:29:22.480Z,840
2018-03-29T11:30:21.741Z,735
2018-03-29T11:31:21.767Z,750
2018-03-29T11:32:22.311Z,840
2018-03-29T11:33:22.085Z,795
2018-03-29T11:34:22.101Z,870
2018-03-29T11:35:22.404Z,950
2018-03-29T11:36:22.515Z,985
2018-03-29T11:37:22.449Z,1030
2018-03-29T11:38:22.222Z,805
2018-03-29T11:39:22.246Z,1255
2018-03-29T11:40:22.785Z,1270
2018-03-29T11:41:22.610Z,1225
2018-03-29T11:42:22.842Z,1210
2018-03-29T11:43:22.880Z,1120
2018-03-29T11:44:22.888Z,1235
2018-03-29T11:45:22.680Z,1565
2018-03-29T11:46:22.463Z,1375
2018-03-29T11:47:22.724Z,1315
2018-03-29T11:48:22.240Z,1515
2018-03-29T11:49:22.778Z,1875
2018-03-29T11:50:22.826Z,1280
2018-03-29T11:51:23.087Z,1850
2018-03-29T11:52:22.866Z,1205
2018-03-29T11:53:23.169Z,1350
2018-03-29T11:54:23.192Z,1305
2018-03-29T11:55:22.702Z,985
2018-03-29T11:56:23.036Z,960
2018-03-29T11:57:23.294Z,860
2018-03-29T11:58:22.782Z,840
2018-03-29T11:59:23.071Z,955
2018-03-29T12:00:23.354Z,1180
2018-03-29T12:01:23.384Z,905
2018-03-29T12:02:23.417Z,870
2018-03-29T12:03:23.190Z,830
2018-03-29T12:04:23.215Z,800
2018-03-29T12:05:23.264Z,715
2018-03-29T12:06:23.266Z,940
2018-03-29T12:07:23.294Z,740
2018-03-29T12:08:23.321Z,625
2018-03-29T12:09:23.602Z,645
2018-03-29T12:10:23.122Z,930
2018-03-29T12:11:23.205Z,970
2018-03-29T12:12:23.679Z,970
2018-03-29T12:13:23.722Z,2165
2018-03-29T12:14:23.483Z,1460
2018-03-29T12:15:23.004Z,830
2018-03-29T12:16:23.290Z,705
2018-03-29T12:17:23.062Z,675
2018-03-29T12:18:23.856Z,815
2018-03-29T12:19:23.368Z,735
2018-03-29T12:20:23.634Z,750
2018-03-29T12:21:23.937Z,825
2018-03-29T12:22:23.954Z,980
2018-03-29T12:23:23.726Z,900
2018-03-29T12:24:23.747Z,905
2018-03-29T12:25:23.271Z,1005
2018-03-29T12:26:23.598Z,885
2018-03-29T12:27:23.865Z,815
2018-03-29T12:28:24.119Z,830
2018-03-29T12:29:23.902Z,1285
2018-03-29T12:30:23.663Z,865
2018-03-29T12:31:23.992Z,970
2018-03-29T12:32:23.961Z,755
2018-03-29T12:33:24.267Z,980
2018-03-29T12:34:24.024Z,1620
2018-03-29T12:35:24.052Z,880
2018-03-29T12:36:23.718Z,1075
2018-03-29T12:37:23.588Z,1575
2018-03-29T12:38:24.126Z,985
2018-03-29T12:39:24.412Z,1520
2018-03-29T12:40:24.185Z,1205
2018-03-29T12:41:24.214Z,620
2018-03-29T12:42:23.989Z,565
2018-03-29T12:43:23.747Z,765
2018-03-29T12:44:23.780Z,485
2018-03-29T12:45:24.313Z,500
2018-03-29T12:46:24.588Z,500
2018-03-29T12:47:24.366Z,485
2018-03-29T12:48:24.782Z,455
2018-03-29T12:49:23.911Z,415
2018-03-29T12:50:24.458Z,385
2018-03-29T12:51:24.272Z,370
2018-03-29T12:52:24.502Z,360
2018-03-29T12:53:24.543Z,365
2018-03-29T12:54:24.804Z,380
2018-03-29T12:55:24.575Z,410
2018-03-29T12:56:24.097Z,460
2018-03-29T12:57:24.177Z,540
2018-03-29T12:58:24.649Z,535
2018-03-29T12:59:24.934Z,570
2018-03-29T13:00:24.466Z,615
2018-03-29T13:01:24.977Z,575
2018-03-29T13:02:24.753Z,580
2018-03-29T13:03:24.525Z,715
2018-03-29T13:04:25.062Z,550
2018-03-29T13:05:25.097Z,510
2018-03-29T13:06:24.652Z,480
2018-03-29T13:07:24.888Z,465
2018-03-29T13:08:24.650Z,460
2018-03-29T13:09:25.194Z,475
2018-03-29T13:10:24.713Z,565
2018-03-29T13:11:24.718Z,650
2018-03-29T13:12:24.748Z,575
2018-03-29T13:13:24.514Z,535
2018-03-29T13:14:25.053Z,525
2018-03-29T13:15:24.818Z,495
2018-03-29T13:16:24.853Z,445
2018-03-29T13:17:24.840Z,415
2018-03-29T13:18:24.863Z,390
2018-03-29T13:19:25.393Z,405
2018-03-29T13:20:25.212Z,425
2018-03-29T13:21:25.498Z,370
2018-03-29T13:22:25.206Z,360
2018-03-29T13:23:25.237Z,370
2018-03-29T13:24:25.003Z,385
2018-03-29T13:25:25.660Z,360
2018-03-29T13:26:25.046Z,325
2018-03-29T13:27:25.073Z,285
2018-03-29T13:28:25.643Z,265
2018-03-29T13:29:25.671Z,250
2018-03-29T13:30:25.685Z,245
2018-03-29T13:31:25.200Z,250
2018-03-29T13:32:25.244Z,255
2018-03-29T13:33:25.494Z,250
2018-03-29T13:34:25.526Z,240
2018-03-29T13:35:25.541Z,225
2018-03-29T13:36:25.665Z,220
2018-03-29T13:37:25.336Z,220
2018-03-29T13:38:25.619Z,220
2018-03-29T13:39:25.634Z,215
2018-03-29T13:40:25.663Z,215
2018-03-29T13:41:25.684Z,215
2018-03-29T13:42:25.703Z,210
2018-03-29T13:43:25.304Z,205
2018-03-29T13:44:25.746Z,195
2018-03-29T13:45:26.032Z,185
2018-03-29T13:46:25.770Z,180
2018-03-29T13:47:25.288Z,175
2018-03-29T13:48:25.825Z,185
2018-03-29T13:49:26.106Z,190
2018-03-29T13:50:25.616Z,190
2018-03-29T13:51:25.677Z,185
2018-03-29T13:52:25.914Z,175
2018-03-29T13:53:25.938Z,170
2018-03-29T13:54:25.709Z,175
2018-03-29T13:55:25.993Z,180
2018-03-29T13:56:25.751Z,180
2018-03-29T13:57:25.787Z,180
2018-03-29T13:58:25.822Z,180
2018-03-29T13:59:25.920Z,180
2018-03-29T14:00:25.839Z,180
2018-03-29T14:01:26.369Z,185
2018-03-29T14:02:26.130Z,185
2018-03-29T14:03:26.153Z,185
2018-03-29T14:04:25.669Z,195
2018-03-29T14:05:26.203Z,215
2018-03-29T14:06:26.272Z,230
2018-03-29T14:07:26.492Z,260
2018-03-29T14:08:26.265Z,285